Time;durP1;ratioP1;P1;durP2;ratioP2;P2;SDS_P1;SDS_P2;PMS_P1;PMS_P2;Temp;Humidity;BMP_temperature;BMP_pressure;BME280_temperature;BME280_humidity;BME280_pressure;Samples;Min_cycle;Max_cycle;Signal;HPM_P1;HPM_P2
2022/10/06 00:01:35;;;;;;;6.30;2.33;;;;;;;;;;4993047;28;20050;-67
2022/10/06 00:04:05;;;;;;;6.32;2.30;;;;;;;;;;4960554;28;20090;-66
2022/10/06 00:06:36;;;;;;;4.45;1.98;;;;;;;;;;4993392;28;20058;-67
2022/10/06 00:09:06;;;;;;;6.03;2.67;;;;;;;;;;4993397;28;20386;-67
2022/10/06 00:11:36;;;;;;;5.25;2.67;;;;;;;;;;4976794;28;20449;-66
2022/10/06 00:14:06;;;;;;;6.63;2.33;;;;;;;;;;4960661;28;20069;-67
2022/10/06 00:16:36;;;;;;;6.10;2.60;;;;;;;;;;4981106;28;20049;-66
2022/10/06 00:19:06;;;;;;;4.78;2.20;;;;;;;;;;5012542;28;20057;-67
2022/10/06 00:21:36;;;;;;;6.65;2.53;;;;;;;;;;4980162;28;20910;-66
2022/10/06 00:24:06;;;;;;;4.10;2.08;;;;;;;;;;4963411;28;20060;-67
2022/10/06 00:26:36;;;;;;;5.75;2.72;;;;;;;;;;5012255;28;20061;-66
2022/10/06 00:29:07;;;;;;;7.95;2.40;;;;;;;;;;4972259;28;20055;-67
2022/10/06 00:31:38;;;;;;;6.38;2.40;;;;;;;;;;4973364;28;20529;-66
2022/10/06 00:34:09;;;;;;;5.70;2.50;;;;;;;;;;4972854;28;20062;-67
2022/10/06 00:36:39;;;;;;;7.50;2.47;;;;;;;;;;4966782;28;20081;-67
2022/10/06 00:39:09;;;;;;;4.40;2.20;;;;;;;;;;4960580;28;20062;-67
2022/10/06 00:41:39;;;;;;;4.50;2.20;;;;;;;;;;4992679;28;20069;-67
2022/10/06 00:44:09;;;;;;;6.60;2.38;;;;;;;;;;4992818;28;20050;-67
2022/10/06 00:46:44;;;;;;;6.82;2.63;;;;;;;;;;4959919;28;20418;-67
2022/10/06 00:49:28;;;;;;;4.90;2.13;;;;;;;;;;4934282;29;20512;-67
2022/10/06 00:52:05;;;;;;;6.10;2.47;;;;;;;;;;4934447;29;20508;-67
2022/10/06 00:54:37;;;;;;;5.47;2.35;;;;;;;;;;4918497;29;20064;-67
2022/10/06 00:57:07;;;;;;;5.05;2.80;;;;;;;;;;4934406;29;20420;-66
2022/10/06 00:59:39;;;;;;;5.63;2.60;;;;;;;;;;4919306;29;20508;-67
2022/10/06 01:02:18;;;;;;;5.40;2.30;;;;;;;;;;4969123;28;20075;-67
2022/10/06 01:04:54;;;;;;;5.90;2.25;;;;;;;;;;4953268;29;20551;-67
2022/10/06 01:07:45;;;;;;;5.97;2.60;;;;;;;;;;4951292;29;20055;-67
2022/10/06 01:10:15;;;;;;;5.72;2.47;;;;;;;;;;4953391;29;20063;-67
2022/10/06 01:12:47;;;;;;;7.93;2.67;;;;;;;;;;4933603;29;20052;-67
2022/10/06 01:15:18;;;;;;;6.47;2.50;;;;;;;;;;4903371;29;20055;-67
2022/10/06 01:18:03;;;;;;;4.60;2.13;;;;;;;;;;4934050;29;20051;-67
2022/10/06 01:20:37;;;;;;;7.53;1.98;;;;;;;;;;4879913;29;20045;-67
2022/10/06 01:23:11;;;;;;;7.22;2.45;;;;;;;;;;4878654;29;20517;-67
2022/10/06 01:25:42;;;;;;;5.80;2.05;;;;;;;;;;4876929;29;20064;-67
2022/10/06 01:28:13;;;;;;;6.05;3.13;;;;;;;;;;4843153;29;20415;-66
2022/10/06 01:30:53;;;;;;;6.90;2.60;;;;;;;;;;4895619;29;20051;-67
2022/10/06 01:33:24;;;;;;;5.80;2.60;;;;;;;;;;4910612;29;20056;-67
2022/10/06 01:35:55;;;;;;;6.38;2.45;;;;;;;;;;4878591;29;20054;-67
2022/10/06 01:38:25;;;;;;;4.90;2.47;;;;;;;;;;4858561;29;20065;-66
2022/10/06 01:41:02;;;;;;;5.43;2.53;;;;;;;;;;4895147;29;20075;-67
2022/10/06 01:43:35;;;;;;;6.40;2.13;;;;;;;;;;4914033;29;20040;-67
2022/10/06 01:46:06;;;;;;;6.20;2.47;;;;;;;;;;4914078;29;20048;-67
2022/10/06 01:48:36;;;;;;;6.57;2.97;;;;;;;;;;4894988;29;20049;-66
2022/10/06 01:51:08;;;;;;;5.10;2.20;;;;;;;;;;4876369;29;20049;-66
2022/10/06 01:53:38;;;;;;;5.65;2.70;;;;;;;;;;4876750;29;20242;-66
2022/10/06 01:56:09;;;;;;;7.00;2.78;;;;;;;;;;4864309;29;20074;-66
2022/10/06 01:58:40;;;;;;;6.57;2.35;;;;;;;;;;4912037;29;20500;-67
2022/10/06 02:01:12;;;;;;;5.70;2.33;;;;;;;;;;4913808;29;20056;-66
2022/10/06 02:03:42;;;;;;;7.38;3.20;;;;;;;;;;4904459;29;20437;-66
2022/10/06 02:06:13;;;;;;;7.20;2.60;;;;;;;;;;4916934;29;20051;-66
2022/10/06 02:08:45;;;;;;;8.23;2.72;;;;;;;;;;4882719;29;20065;-64
2022/10/06 02:11:15;;;;;;;7.25;2.85;;;;;;;;;;4876170;29;20052;-65
2022/10/06 02:13:47;;;;;;;6.43;2.47;;;;;;;;;;4876154;29;20530;-66
2022/10/06 02:16:18;;;;;;;8.85;3.08;;;;;;;;;;4876249;29;20053;-66
2022/10/06 02:18:48;;;;;;;7.60;2.63;;;;;;;;;;4885845;29;20508;-67
2022/10/06 02:21:22;;;;;;;7.38;3.33;;;;;;;;;;4893198;29;20061;-68
2022/10/06 02:23:52;;;;;;;;;;;;;;;;;;4876726;29;20067;-67
2022/10/06 02:26:22;;;;;;;6.45;2.78;;;;;;;;;;4913243;29;19946;-66
2022/10/06 02:28:52;;;;;;;6.88;2.80;;;;;;;;;;4895751;29;20097;-66
2022/10/06 02:31:24;;;;;;;7.13;3.13;;;;;;;;;;4894375;29;20485;-66
2022/10/06 02:33:57;;;;;;;8.13;3.03;;;;;;;;;;4909807;29;20052;-67
2022/10/06 02:36:28;;;;;;;8.15;2.42;;;;;;;;;;4879085;29;20106;-67
2022/10/06 02:38:58;;;;;;;8.38;3.13;;;;;;;;;;4903022;29;20053;-63
2022/10/06 02:41:28;;;;;;;8.00;3.40;;;;;;;;;;4913328;29;20063;-62
2022/10/06 02:43:59;;;;;;;6.85;2.97;;;;;;;;;;4923309;29;20525;-63
2022/10/06 02:46:31;;;;;;;7.78;3.00;;;;;;;;;;4922241;29;20044;-64
2022/10/06 02:49:02;;;;;;;11.00;3.30;;;;;;;;;;4941063;28;20044;-65
2022/10/06 02:51:33;;;;;;;7.80;3.13;;;;;;;;;;4934700;28;20051;-63
2022/10/06 02:54:03;;;;;;;10.27;3.63;;;;;;;;;;4941252;28;20059;-64
2022/10/06 02:56:36;;;;;;;6.57;2.92;;;;;;;;;;4931992;29;20051;-65
2022/10/06 02:59:07;;;;;;;8.40;2.85;;;;;;;;;;4900670;29;20052;-65
2022/10/06 03:01:40;;;;;;;7.75;3.28;;;;;;;;;;4913217;29;20056;-66
2022/10/06 03:04:16;;;;;;;9.07;3.33;;;;;;;;;;4894192;29;20071;-66
2022/10/06 03:06:47;;;;;;;7.30;2.80;;;;;;;;;;4913073;29;20044;-66
2022/10/06 03:09:21;;;;;;;7.45;3.22;;;;;;;;;;4920262;29;20052;-66
2022/10/06 03:11:53;;;;;;;6.90;3.30;;;;;;;;;;4908495;29;20045;-66
2022/10/06 03:14:44;;;;;;;7.40;2.92;;;;;;;;;;4912987;29;20401;-66
2022/10/06 03:17:14;;;;;;;8.98;2.85;;;;;;;;;;4884170;29;20064;-65
2022/10/06 03:19:50;;;;;;;5.60;3.17;;;;;;;;;;4883515;29;20053;-65
2022/10/06 03:22:21;;;;;;;7.28;3.25;;;;;;;;;;4906619;29;20053;-65
2022/10/06 03:24:54;;;;;;;13.20;2.92;;;;;;;;;;4879260;29;20057;-66
2022/10/06 03:27:26;;;;;;;8.20;3.42;;;;;;;;;;4878909;29;20057;-66
2022/10/06 03:30:02;;;;;;;7.93;3.28;;;;;;;;;;4878510;29;20057;-66
2022/10/06 03:32:34;;;;;;;9.52;3.60;;;;;;;;;;4893862;29;20386;-66
2022/10/06 03:35:06;;;;;;;6.18;3.20;;;;;;;;;;4875356;29;20417;-65
2022/10/06 03:37:37;;;;;;;5.50;2.65;;;;;;;;;;4909464;29;20076;-65
2022/10/06 03:40:07;;;;;;;7.40;2.90;;;;;;;;;;4909186;29;20052;-66
2022/10/06 03:42:37;;;;;;;7.18;2.90;;;;;;;;;;4883546;29;20489;-66
2022/10/06 03:45:08;;;;;;;7.18;3.33;;;;;;;;;;4859612;29;20415;-66
2022/10/06 03:47:38;;;;;;;5.20;2.63;;;;;;;;;;4876537;29;20057;-66
2022/10/06 03:50:09;;;;;;;6.70;2.80;;;;;;;;;;4888902;29;20169;-66
2022/10/06 03:52:39;;;;;;;5.53;2.58;;;;;;;;;;4893754;29;20056;-66
2022/10/06 03:55:10;;;;;;;6.25;2.67;;;;;;;;;;4893862;29;20056;-66
2022/10/06 03:57:41;;;;;;;5.35;2.55;;;;;;;;;;4854239;29;20069;-66
2022/10/06 04:00:12;;;;;;;6.32;2.75;;;;;;;;;;4838117;29;20061;-66
2022/10/06 04:02:43;;;;;;;6.43;2.72;;;;;;;;;;4861113;29;20054;-66
2022/10/06 04:05:14;;;;;;;7.32;2.90;;;;;;;;;;4890118;29;20050;-65
2022/10/06 04:07:44;;;;;;;5.82;2.65;;;;;;;;;;4859418;29;20542;-66
2022/10/06 04:10:14;;;;;;;6.75;3.05;;;;;;;;;;4887555;29;20052;-66
2022/10/06 04:12:45;;;;;;;5.03;2.40;;;;;;;;;;4915450;29;20111;-69
2022/10/06 04:15:15;;;;;;;5.70;2.60;;;;;;;;;;4916584;29;20048;-64
2022/10/06 04:17:45;;;;;;;5.75;2.45;;;;;;;;;;4943692;29;20062;-62
2022/10/06 04:20:15;;;;;;;5.50;3.00;;;;;;;;;;4972970;28;20051;-62
2022/10/06 04:22:45;;;;;;;8.07;3.13;;;;;;;;;;4963679;28;20062;-60
2022/10/06 04:25:15;;;;;;;7.90;3.35;;;;;;;;;;4953614;29;20643;-61
2022/10/06 04:27:45;;;;;;;7.88;2.88;;;;;;;;;;4944213;29;20052;-63
2022/10/06 04:30:16;;;;;;;6.35;2.63;;;;;;;;;;4960113;28;20125;-65
2022/10/06 04:32:46;;;;;;;7.47;2.35;;;;;;;;;;4925317;29;20044;-62
2022/10/06 04:35:16;;;;;;;5.13;2.67;;;;;;;;;;4957282;28;20090;-61
2022/10/06 04:37:47;;;;;;;6.50;2.63;;;;;;;;;;4924017;29;20055;-61
2022/10/06 04:40:17;;;;;;;6.80;2.67;;;;;;;;;;4944865;29;20075;-61
2022/10/06 04:42:48;;;;;;;7.07;2.85;;;;;;;;;;4934128;29;20063;-62
2022/10/06 04:45:19;;;;;;;4.88;2.67;;;;;;;;;;4935664;28;20498;-61
2022/10/06 04:47:49;;;;;;;6.70;2.83;;;;;;;;;;4890850;29;20071;-60
2022/10/06 04:50:19;;;;;;;4.47;2.30;;;;;;;;;;4898315;29;20060;-60
2022/10/06 04:53:08;;;;;;;7.85;3.33;;;;;;;;;;4895825;29;20049;-60
2022/10/06 04:55:38;;;;;;;9.60;3.25;;;;;;;;;;4885295;29;20176;-61
2022/10/06 04:58:09;;;;;;;7.20;2.88;;;;;;;;;;4884992;29;20056;-61
2022/10/06 05:00:39;;;;;;;6.88;2.72;;;;;;;;;;4889708;29;20061;-62
2022/10/06 05:03:10;;;;;;;7.47;3.53;;;;;;;;;;4895959;29;20057;-61
2022/10/06 05:05:41;;;;;;;5.80;2.58;;;;;;;;;;4872281;29;20056;-61
2022/10/06 05:08:11;;;;;;;5.80;1.88;;;;;;;;;;4892350;29;20057;-61
2022/10/06 05:10:41;;;;;;;6.00;2.33;;;;;;;;;;4922735;29;20055;-60
2022/10/06 05:13:13;;;;;;;9.25;2.60;;;;;;;;;;4887655;29;20053;-62
2022/10/06 05:15:43;;;;;;;7.57;3.13;;;;;;;;;;4892580;29;20064;-61
2022/10/06 05:18:13;;;;;;;7.22;3.33;;;;;;;;;;4895766;29;20067;-61
2022/10/06 05:20:43;;;;;;;7.30;3.90;;;;;;;;;;4903325;29;20463;-61
2022/10/06 05:23:17;;;;;;;9.57;3.88;;;;;;;;;;4910264;29;20067;-61
2022/10/06 05:25:52;;;;;;;7.35;2.92;;;;;;;;;;4894054;29;20056;-60
2022/10/06 05:28:24;;;;;;;7.20;4.30;;;;;;;;;;4939820;29;20447;-61
2022/10/06 05:31:02;;;;;;;8.43;3.22;;;;;;;;;;4933487;29;20058;-62
2022/10/06 05:33:34;;;;;;;6.55;3.17;;;;;;;;;;4944734;29;20051;-61
2022/10/06 05:36:10;;;;;;;8.70;3.90;;;;;;;;;;4960122;28;20047;-61
2022/10/06 05:38:41;;;;;;;5.07;2.63;;;;;;;;;;4920581;28;20043;-60
2022/10/06 05:41:14;;;;;;;6.45;2.90;;;;;;;;;;4924037;29;20641;-60
2022/10/06 05:43:45;;;;;;;8.75;2.70;;;;;;;;;;4933018;29;20054;-60
2022/10/06 05:46:19;;;;;;;9.48;2.70;;;;;;;;;;4920883;29;20520;-60
2022/10/06 05:48:54;;;;;;;7.82;3.33;;;;;;;;;;4888298;29;20068;-60
2022/10/06 05:51:29;;;;;;;7.20;3.00;;;;;;;;;;4849642;29;20073;-60
2022/10/06 05:54:03;;;;;;;7.35;2.95;;;;;;;;;;4884379;29;20058;-60
2022/10/06 05:56:37;;;;;;;6.18;2.95;;;;;;;;;;4887446;29;20702;-61
2022/10/06 05:59:08;;;;;;;7.40;2.88;;;;;;;;;;4895026;29;20052;-60
2022/10/06 06:01:42;;;;;;;5.47;2.53;;;;;;;;;;4913985;29;20052;-61
2022/10/06 06:04:20;;;;;;;6.43;2.38;;;;;;;;;;4899047;29;20060;-60
2022/10/06 06:06:53;;;;;;;5.47;2.67;;;;;;;;;;4929859;29;20044;-61
2022/10/06 06:09:27;;;;;;;6.13;2.33;;;;;;;;;;4902371;29;20058;-60
2022/10/06 06:12:00;;;;;;;3.47;1.63;;;;;;;;;;4913703;29;20048;-60
2022/10/06 06:17:38;;;;;;;6.93;2.45;;;;;;;;;;4898920;29;20048;-60
2022/10/06 06:20:09;;;;;;;2.83;1.55;;;;;;;;;;4913562;29;20056;-61
2022/10/06 06:22:40;;;;;;;6.22;2.67;;;;;;;;;;4967061;28;20058;-61
2022/10/06 06:25:11;;;;;;;4.75;2.50;;;;;;;;;;4951589;29;20668;-60
2022/10/06 06:27:44;;;;;;;6.30;2.58;;;;;;;;;;4950643;29;20058;-60
2022/10/06 06:30:16;;;;;;;5.13;2.00;;;;;;;;;;4951301;29;20400;-61
2022/10/06 06:32:46;;;;;;;6.05;2.20;;;;;;;;;;4919528;29;20047;-60
2022/10/06 06:35:17;;;;;;;4.70;2.05;;;;;;;;;;4933556;29;20044;-61
2022/10/06 06:37:47;;;;;;;5.25;2.13;;;;;;;;;;4931974;29;20047;-61
2022/10/06 06:40:18;;;;;;;4.28;2.08;;;;;;;;;;4917240;29;20052;-61
2022/10/06 06:42:48;;;;;;;4.75;2.03;;;;;;;;;;4897911;29;20063;-62
2022/10/06 06:45:21;;;;;;;5.05;2.10;;;;;;;;;;4909874;29;20067;-62
2022/10/06 06:48:04;;;;;;;5.05;2.10;;;;;;;;;;4912226;29;20064;-62
2022/10/06 06:50:35;;;;;;;4.03;1.80;;;;;;;;;;4896522;29;20449;-63
2022/10/06 06:53:05;;;;;;;5.55;2.25;;;;;;;;;;4894167;29;20063;-61
2022/10/06 06:55:49;;;;;;;6.60;2.70;;;;;;;;;;4913155;29;20177;-62
2022/10/06 06:58:22;;;;;;;5.60;2.30;;;;;;;;;;4882438;29;20056;-63
2022/10/06 07:01:07;;;;;;;4.97;2.08;;;;;;;;;;4885683;29;20064;-63
2022/10/06 07:03:39;;;;;;;5.35;2.50;;;;;;;;;;4872026;29;20059;-63
2022/10/06 07:06:31;;;;;;;5.75;2.33;;;;;;;;;;4875399;29;20056;-62
2022/10/06 07:09:03;;;;;;;6.47;2.40;;;;;;;;;;4893202;29;20049;-62
2022/10/06 07:11:38;;;;;;;4.85;2.33;;;;;;;;;;4890630;29;20045;-62
2022/10/06 07:14:13;;;;;;;6.55;3.17;;;;;;;;;;4894026;29;20049;-62
2022/10/06 07:25:25;;;;;;;5.47;2.58;;;;;;;;;;4931642;29;20056;-62
2022/10/06 07:27:58;;;;;;;6.28;2.33;;;;;;;;;;4924481;29;20496;-62
2022/10/06 07:30:33;;;;;;;5.30;2.13;;;;;;;;;;4893998;29;20052;-63
2022/10/06 07:33:14;;;;;;;6.75;3.40;;;;;;;;;;4880878;29;20399;-62
2022/10/06 07:35:45;;;;;;;6.95;3.20;;;;;;;;;;4856379;29;20640;-61
2022/10/06 07:38:23;;;;;;;7.07;3.30;;;;;;;;;;4877112;29;20053;-62
2022/10/06 07:40:56;;;;;;;7.38;3.22;;;;;;;;;;4872799;29;20072;-62
2022/10/06 07:43:52;;;;;;;6.85;3.35;;;;;;;;;;4848071;29;20064;-62
2022/10/06 07:46:24;;;;;;;6.18;2.80;;;;;;;;;;4841444;29;20049;-61
2022/10/06 07:48:59;;;;;;;9.70;2.97;;;;;;;;;;4863332;29;20055;-62
2022/10/06 07:51:31;;;;;;;9.27;3.03;;;;;;;;;;4872313;29;20056;-62
2022/10/06 07:54:02;;;;;;;9.18;3.40;;;;;;;;;;4913026;29;20052;-62
2022/10/06 07:56:53;;;;;;;6.72;3.00;;;;;;;;;;4897471;29;20056;-61
2022/10/06 07:59:23;;;;;;;6.72;3.25;;;;;;;;;;4852277;29;20057;-61
2022/10/06 08:01:53;;;;;;;8.57;3.15;;;;;;;;;;4897337;29;20060;-61
2022/10/06 08:04:24;;;;;;;6.13;2.60;;;;;;;;;;4897461;29;20065;-61
2022/10/06 08:06:57;;;;;;;8.73;2.92;;;;;;;;;;4878526;29;20057;-62
2022/10/06 08:09:29;;;;;;;4.97;2.42;;;;;;;;;;4916348;29;20172;-62
2022/10/06 08:12:31;;;;;;;6.10;3.53;;;;;;;;;;4916236;29;20416;-62
2022/10/06 08:14:49;;;;;;;6.43;2.63;;;;;;;;;;4910606;29;20072;-63
2022/10/06 08:17:20;;;;;;;7.00;2.55;;;;;;;;;;4908280;29;20064;-63
2022/10/06 08:19:50;;;;;;;6.32;2.50;;;;;;;;;;4897374;29;20501;-64
2022/10/06 08:22:21;;;;;;;5.32;2.30;;;;;;;;;;4928886;29;20067;-61
2022/10/06 08:24:53;;;;;;;6.47;2.25;;;;;;;;;;4935025;29;20060;-62
2022/10/06 08:27:35;;;;;;;5.00;2.10;;;;;;;;;;4968842;28;20070;-62
2022/10/06 08:30:06;;;;;;;2.78;1.30;;;;;;;;;;4975588;28;20517;-62
2022/10/06 08:32:37;;;;;;;3.40;1.85;;;;;;;;;;4996367;28;20467;-63
2022/10/06 08:35:09;;;;;;;5.30;2.00;;;;;;;;;;5051440;28;20499;-62
2022/10/06 08:37:39;;;;;;;7.47;2.13;;;;;;;;;;5115050;28;20486;-63
2022/10/06 08:40:13;;;;;;;4.25;2.17;;;;;;;;;;5114869;28;20039;-61
2022/10/06 08:42:50;;;;;;;3.35;1.52;;;;;;;;;;5079186;28;20063;-62
2022/10/06 08:45:43;;;;;;;3.72;1.58;;;;;;;;;;5114570;28;20039;-62
2022/10/06 08:48:23;;;;;;;4.13;2.03;;;;;;;;;;5114880;28;20043;-63
2022/10/06 08:51:00;;;;;;;3.63;2.20;;;;;;;;;;5078785;28;20388;-63
2022/10/06 08:54:15;;;;;;;4.10;1.73;;;;;;;;;;5114820;28;20399;-63
2022/10/06 08:57:05;;;;;;;4.15;1.55;;;;;;;;;;5051654;28;20052;-63
2022/10/06 08:59:36;;;;;;;3.75;1.83;;;;;;;;;;5051716;28;20049;-62
2022/10/06 09:02:27;;;;;;;4.13;1.92;;;;;;;;;;5051692;28;20061;-62
2022/10/06 09:05:01;;;;;;;3.40;1.80;;;;;;;;;;5051597;28;20055;-63
2022/10/06 09:07:51;;;;;;;4.75;2.08;;;;;;;;;;5051402;28;20521;-63
2022/10/06 09:10:32;;;;;;;3.05;1.45;;;;;;;;;;5051443;28;20040;-62
2022/10/06 09:13:10;;;;;;;2.45;1.17;;;;;;;;;;5034888;28;20049;-62
2022/10/06 09:16:05;;;;;;;2.30;1.10;;;;;;;;;;5034388;28;20060;-61
2022/10/06 09:18:43;;;;;;;4.10;1.83;;;;;;;;;;5051206;28;20061;-62
2022/10/06 09:21:43;;;;;;;4.72;2.10;;;;;;;;;;5051152;28;20049;-61
2022/10/06 09:24:17;;;;;;;7.57;2.50;;;;;;;;;;5017926;28;20088;-61
2022/10/06 09:26:50;;;;;;;7.32;3.70;;;;;;;;;;5034110;28;20385;-62
2022/10/06 09:29:20;;;;;;;4.55;2.10;;;;;;;;;;5017789;28;20104;-61
2022/10/06 09:31:50;;;;;;;2.25;1.02;;;;;;;;;;5051106;28;20496;-61
2022/10/06 09:34:27;;;;;;;3.92;1.45;;;;;;;;;;5068214;28;20051;-62
2022/10/06 09:37:03;;;;;;;3.75;1.77;;;;;;;;;;5113995;28;20046;-61
2022/10/06 09:39:36;;;;;;;4.38;1.80;;;;;;;;;;5053715;28;20056;-61
2022/10/06 09:42:15;;;;;;;2.38;1.10;;;;;;;;;;5070802;28;20045;-61
2022/10/06 09:44:58;;;;;;;3.20;1.42;;;;;;;;;;5054020;28;20056;-61
2022/10/06 09:47:31;;;;;;;5.15;1.08;;;;;;;;;;5021146;28;20060;-61
2022/10/06 09:50:22;;;;;;;2.03;1.10;;;;;;;;;;5054392;28;20047;-61
2022/10/06 09:53:02;;;;;;;4.18;1.35;;;;;;;;;;5070589;28;20053;-61
2022/10/06 09:55:40;;;;;;;3.88;0.95;;;;;;;;;;5070479;28;20044;-61
2022/10/06 09:58:22;;;;;;;2.38;1.15;;;;;;;;;;5070478;28;20500;-62
2022/10/06 10:00:52;;;;;;;5.65;1.42;;;;;;;;;;5070473;28;20056;-61
2022/10/06 10:03:25;;;;;;;3.17;1.58;;;;;;;;;;5037147;28;20045;-62
2022/10/06 10:05:58;;;;;;;3.03;1.58;;;;;;;;;;5070346;28;20049;-62
2022/10/06 10:08:29;;;;;;;3.50;1.70;;;;;;;;;;5020678;28;20068;-61
2022/10/06 10:13:57;;;;;;;3.83;1.67;;;;;;;;;;5036733;28;20052;-61
2022/10/06 10:16:33;;;;;;;4.25;1.80;;;;;;;;;;5078730;28;20047;-61
2022/10/06 10:19:05;;;;;;;3.80;1.73;;;;;;;;;;5113287;28;20043;-61
2022/10/06 10:21:36;;;;;;;3.47;1.85;;;;;;;;;;5113011;28;20403;-61
2022/10/06 10:24:17;;;;;;;350.73;132.50;;;;;;;;;;5113028;28;20044;-61
2022/10/06 10:27:12;;;;;;;93.60;29.25;;;;;;;;;;5112905;28;20510;-61
2022/10/06 10:30:00;;;;;;;16.80;7.93;;;;;;;;;;5077147;28;20058;-61
2022/10/06 10:32:45;;;;;;;30.60;12.63;;;;;;;;;;5060831;28;20468;-61
2022/10/06 10:35:25;;;;;;;74.30;36.72;;;;;;;;;;5112852;28;20070;-61
2022/10/06 10:38:09;;;;;;;11.27;6.40;;;;;;;;;;5112863;28;20499;-61
2022/10/06 10:40:53;;;;;;;4.35;2.20;;;;;;;;;;5060422;28;20496;-61
2022/10/06 10:43:44;;;;;;;6.90;4.30;;;;;;;;;;5112574;28;20414;-61
2022/10/06 10:46:37;;;;;;;3.60;1.85;;;;;;;;;;5060602;28;20040;-61
2022/10/06 10:49:18;;;;;;;3.45;2.08;;;;;;;;;;5112633;28;20047;-61
2022/10/06 10:51:51;;;;;;;3.00;1.50;;;;;;;;;;5060139;28;20769;-61
2022/10/06 10:54:41;;;;;;;3.95;2.00;;;;;;;;;;5112768;28;20388;-61
2022/10/06 10:57:18;;;;;;;3.63;1.88;;;;;;;;;;5112621;28;20040;-61
2022/10/06 10:59:59;;;;;;;6.45;1.80;;;;;;;;;;5059851;28;20398;-61
2022/10/06 11:02:32;;;;;;;2.35;1.10;;;;;;;;;;5059767;28;20055;-61
2022/10/06 11:05:14;;;;;;;3.33;1.50;;;;;;;;;;5112519;28;20479;-61
2022/10/06 11:07:48;;;;;;;5.75;2.90;;;;;;;;;;5076657;28;20419;-61
2022/10/06 11:10:21;;;;;;;4.75;2.22;;;;;;;;;;5112296;28;20036;-61
2022/10/06 11:13:22;;;;;;;3.63;2.08;;;;;;;;;;5078414;28;20059;-62
2022/10/06 11:16:22;;;;;;;4.07;1.80;;;;;;;;;;5116542;28;20047;-61
2022/10/06 11:18:59;;;;;;;4.55;1.90;;;;;;;;;;5056402;28;20053;-61
2022/10/06 11:21:41;;;;;;;5.18;1.73;;;;;;;;;;5073703;28;20515;-61
2022/10/06 11:24:18;;;;;;;4.85;1.75;;;;;;;;;;5073340;28;20063;-61
2022/10/06 11:27:25;;;;;;;3.28;1.38;;;;;;;;;;5039651;28;20532;-61
2022/10/06 11:30:02;;;;;;;4.25;1.45;;;;;;;;;;5073429;28;20068;-62
2022/10/06 11:32:50;;;;;;;2.97;1.33;;;;;;;;;;5073234;28;20060;-61
2022/10/06 11:35:25;;;;;;;2.75;1.13;;;;;;;;;;5073193;28;20044;-60
2022/10/06 11:38:19;;;;;;;2.78;1.13;;;;;;;;;;5073236;28;20051;-60
2022/10/06 11:41:00;;;;;;;2.20;0.93;;;;;;;;;;4996706;28;20050;-60
2022/10/06 11:44:26;;;;;;;5.00;1.23;;;;;;;;;;4996789;28;20061;-60
2022/10/06 11:47:06;;;;;;;2.53;1.52;;;;;;;;;;4935895;29;20099;-61
2022/10/06 11:49:48;;;;;;;2.65;1.42;;;;;;;;;;4935914;29;20051;-61
2022/10/06 11:52:18;;;;;;;4.93;1.63;;;;;;;;;;4950912;29;20092;-61
2022/10/06 11:54:52;;;;;;;3.17;1.65;;;;;;;;;;4935706;29;20103;-60
2022/10/06 11:57:23;;;;;;;4.28;1.80;;;;;;;;;;4936003;28;20514;-60
2022/10/06 12:00:04;;;;;;;2.83;1.50;;;;;;;;;;4941444;28;20055;-61
2022/10/06 12:02:36;;;;;;;4.75;1.50;;;;;;;;;;4919278;29;20055;-61
2022/10/06 12:05:10;;;;;;;4.20;1.92;;;;;;;;;;4935518;29;20055;-60
2022/10/06 12:08:00;;;;;;;11.52;6.05;;;;;;;;;;4919442;29;20052;-61
2022/10/06 12:10:31;;;;;;;9.32;5.30;;;;;;;;;;4919601;29;20062;-60
2022/10/06 12:13:25;;;;;;;7.18;4.82;;;;;;;;;;4903585;29;20420;-60
2022/10/06 12:16:36;;;;;;;10.00;5.68;;;;;;;;;;4935178;29;20056;-60
2022/10/06 12:20:08;;;;;;;6.82;3.45;;;;;;;;;;4973679;28;20055;-60
2022/10/06 12:22:41;;;;;;;6.75;3.70;;;;;;;;;;4963633;28;20051;-60
2022/10/06 12:25:17;;;;;;;7.03;4.30;;;;;;;;;;4952839;28;20055;-60
2022/10/06 12:28:22;;;;;;;14.93;7.75;;;;;;;;;;4921792;29;20051;-60
2022/10/06 12:31:22;;;;;;;13.07;7.32;;;;;;;;;;4954076;29;20063;-60
2022/10/06 12:33:52;;;;;;;11.18;6.40;;;;;;;;;;4948701;28;20059;-60
2022/10/06 12:36:24;;;;;;;9.32;5.35;;;;;;;;;;4973226;28;20678;-60
2022/10/06 12:39:06;;;;;;;158.85;74.78;;;;;;;;;;4973356;28;20538;-61
2022/10/06 12:41:55;;;;;;;22.88;10.60;;;;;;;;;;4941092;28;20058;-60
2022/10/06 12:44:52;;;;;;;57.78;30.83;;;;;;;;;;4973210;28;20054;-62
2022/10/06 12:47:33;;;;;;;9.07;3.75;;;;;;;;;;4953865;28;20059;-61
2022/10/06 12:50:25;;;;;;;6.65;3.67;;;;;;;;;;4953839;28;20067;-61
2022/10/06 12:53:07;;;;;;;8.10;4.03;;;;;;;;;;4969987;28;20054;-61
2022/10/06 12:55:49;;;;;;;8.88;4.30;;;;;;;;;;5012019;28;20745;-61
2022/10/06 12:58:31;;;;;;;10.60;5.32;;;;;;;;;;4995492;28;20198;-62
2022/10/06 13:01:04;;;;;;;9.52;4.55;;;;;;;;;;5011964;28;20544;-62
2022/10/06 13:03:36;;;;;;;5.75;2.90;;;;;;;;;;5027900;28;20053;-62
2022/10/06 13:06:08;;;;;;;;;;;;;;;;;;5032125;28;20053;-62
2022/10/06 13:08:39;;;;;;;4.88;2.60;;;;;;;;;;5031720;28;19921;-62
2022/10/06 13:11:11;;;;;;;4.57;2.47;;;;;;;;;;5031487;28;20061;-62
2022/10/06 13:14:00;;;;;;;4.82;2.22;;;;;;;;;;5031817;28;20050;-62
2022/10/06 13:16:39;;;;;;;3.90;1.88;;;;;;;;;;5031400;28;20537;-62
2022/10/06 13:19:26;;;;;;;5.18;1.92;;;;;;;;;;5031482;28;20045;-63
2022/10/06 13:22:00;;;;;;;3.90;1.65;;;;;;;;;;5031566;28;20152;-63
2022/10/06 13:24:31;;;;;;;3.95;2.03;;;;;;;;;;5030277;28;20047;-63
2022/10/06 13:27:01;;;;;;;4.88;2.42;;;;;;;;;;5114096;28;20060;-62
2022/10/06 13:29:31;;;;;;;8.68;3.35;;;;;;;;;;5114043;28;20044;-61
2022/10/06 13:32:01;;;;;;;9.05;3.70;;;;;;;;;;5077805;28;20454;-61
2022/10/06 13:34:41;;;;;;;7.80;2.72;;;;;;;;;;5078285;28;20051;-60
2022/10/06 13:37:15;;;;;;;7.22;3.30;;;;;;;;;;5113534;28;20035;-61
2022/10/06 13:39:46;;;;;;;6.97;2.33;;;;;;;;;;5095315;28;20411;-61
2022/10/06 13:42:22;;;;;;;5.10;2.17;;;;;;;;;;5113804;28;20050;-62
2022/10/06 13:45:02;;;;;;;2.72;1.10;;;;;;;;;;5078598;28;20070;-62
2022/10/06 13:47:33;;;;;;;2.97;1.20;;;;;;;;;;5020988;28;20064;-62
2022/10/06 13:50:12;;;;;;;2.50;1.20;;;;;;;;;;5070308;28;20056;-62
2022/10/06 13:52:49;;;;;;;1.73;0.85;;;;;;;;;;5071421;28;20051;-62
2022/10/06 13:55:27;;;;;;;2.03;0.90;;;;;;;;;;5070579;28;20079;-62
2022/10/06 13:57:59;;;;;;;2.33;1.02;;;;;;;;;;5053818;28;20142;-63
2022/10/06 14:01:08;;;;;;;2.30;0.82;;;;;;;;;;5070402;28;20535;-62
2022/10/06 14:03:39;;;;;;;2.45;0.70;;;;;;;;;;4991181;28;20065;-63
2022/10/06 14:06:20;;;;;;;1.10;0.68;;;;;;;;;;5010490;28;20080;-63
2022/10/06 14:08:56;;;;;;;1.40;0.80;;;;;;;;;;4962439;28;20430;-64
2022/10/06 14:11:29;;;;;;;2.13;1.10;;;;;;;;;;5010764;28;20053;-64
2022/10/06 14:14:04;;;;;;;1.58;0.85;;;;;;;;;;4961524;28;20054;-65
2022/10/06 14:16:34;;;;;;;2.45;0.80;;;;;;;;;;5010598;28;20042;-64
2022/10/06 14:19:05;;;;;;;1.60;0.75;;;;;;;;;;5010523;28;20057;-65
2022/10/06 14:21:43;;;;;;;1.65;0.93;;;;;;;;;;5027002;28;20054;-65
2022/10/06 14:24:18;;;;;;;;;;;;;;;;;;4964338;28;20065;-66
2022/10/06 14:26:49;;;;;;;1.90;0.80;;;;;;;;;;5030170;28;19921;-66
2022/10/06 14:29:21;;;;;;;1.35;0.75;;;;;;;;;;5030185;28;20614;-66
2022/10/06 14:31:51;;;;;;;1.10;0.73;;;;;;;;;;5030298;28;20064;-65
2022/10/06 14:34:22;;;;;;;1.30;0.70;;;;;;;;;;5029914;28;20185;-64
2022/10/06 14:36:53;;;;;;;2.28;0.60;;;;;;;;;;5009967;28;20046;-65
2022/10/06 14:39:24;;;;;;;1.00;0.55;;;;;;;;;;5030580;28;20057;-65
2022/10/06 14:41:54;;;;;;;0.80;0.40;;;;;;;;;;5049957;28;20057;-62
2022/10/06 14:44:24;;;;;;;1.48;0.55;;;;;;;;;;5064651;28;20059;-65
2022/10/06 14:46:54;;;;;;;0.75;0.30;;;;;;;;;;5069272;28;20080;-65
2022/10/06 14:49:24;;;;;;;2.65;0.60;;;;;;;;;;5069704;28;20064;-65
2022/10/06 14:51:55;;;;;;;0.95;0.43;;;;;;;;;;5036711;28;20059;-63
2022/10/06 14:54:26;;;;;;;0.93;0.52;;;;;;;;;;5070002;28;20127;-64
2022/10/06 14:56:56;;;;;;;2.67;1.27;;;;;;;;;;5069810;28;20420;-65
2022/10/06 14:59:26;;;;;;;0.55;0.43;;;;;;;;;;5069794;28;20515;-65
2022/10/06 15:01:56;;;;;;;0.20;0.20;;;;;;;;;;5069771;28;20053;-62
2022/10/06 15:04:27;;;;;;;0.95;0.80;;;;;;;;;;5069929;28;20520;-66
2022/10/06 15:09:45;;;;;;;0.30;0.20;;;;;;;;;;5069603;28;20049;-65
2022/10/06 15:12:16;;;;;;;0.60;0.50;;;;;;;;;;5020007;28;20064;-64
2022/10/06 15:14:46;;;;;;;0.88;0.50;;;;;;;;;;5013035;28;20614;-65
2022/10/06 15:17:16;;;;;;;0.30;0.20;;;;;;;;;;5112466;28;20047;-64
2022/10/06 15:19:46;;;;;;;1.00;0.50;;;;;;;;;;5076587;28;20396;-63
2022/10/06 15:22:17;;;;;;;0.60;0.52;;;;;;;;;;5112356;28;20395;-63
2022/10/06 15:24:49;;;;;;;1.05;0.30;;;;;;;;;;5112422;28;20402;-63
2022/10/06 15:30:12;;;;;;;0.32;0.20;;;;;;;;;;5078147;28;20059;-63
2022/10/06 15:32:42;;;;;;;0.95;0.60;;;;;;;;;;5112130;28;20054;-63
2022/10/06 15:35:12;;;;;;;0.95;0.22;;;;;;;;;;5112499;28;20509;-62
2022/10/06 15:37:42;;;;;;;1.10;0.32;;;;;;;;;;5112247;28;20047;-62
2022/10/06 15:40:12;;;;;;;0.90;0.30;;;;;;;;;;5112349;28;20070;-61
2022/10/06 15:42:42;;;;;;;0.63;0.63;;;;;;;;;;5112193;28;20043;-62
2022/10/06 15:45:12;;;;;;;0.43;0.30;;;;;;;;;;5093061;28;20495;-62
2022/10/06 15:47:42;;;;;;;2.22;0.32;;;;;;;;;;5069060;28;20051;-62
2022/10/06 15:50:12;;;;;;;3.03;0.40;;;;;;;;;;5015883;28;20060;-62
2022/10/06 15:52:47;;;;;;;0.50;0.30;;;;;;;;;;4985688;28;20061;-61